createdAt,value
2022-11-10T00:01:46.746Z,12.20
2022-11-10T00:06:48.882Z,12.00
2022-11-10T00:11:50.566Z,12.00
2022-11-10T00:17:01.077Z,11.80
2022-11-10T00:22:03.232Z,11.80
2022-11-10T00:27:05.086Z,11.80
2022-11-10T00:32:07.177Z,11.70
2022-11-10T00:37:08.844Z,11.70
2022-11-10T00:42:10.949Z,11.60
2022-11-10T00:47:13.215Z,11.50
2022-11-10T00:52:14.887Z,11.60
2022-11-10T00:57:16.599Z,11.40
2022-11-10T01:02:18.281Z,11.30
2022-11-10T01:07:19.918Z,11.40
2022-11-10T01:12:21.574Z,11.40
2022-11-10T01:17:23.278Z,11.40
2022-11-10T01:22:25.115Z,11.40
2022-11-10T01:27:26.830Z,11.40
2022-11-10T01:32:28.588Z,11.40
2022-11-10T01:37:30.294Z,11.40
2022-11-10T01:42:58.431Z,11.40
2022-11-10T01:48:04.284Z,11.40
2022-11-10T01:53:09.641Z,11.30
2022-11-10T01:58:13.231Z,11.30
2022-11-10T02:03:40.011Z,11.20
2022-11-10T02:08:42.978Z,11.20
2022-11-10T02:13:44.745Z,11.10
2022-11-10T02:18:46.449Z,11.10
2022-11-10T02:23:53.469Z,11.00
2022-11-10T02:28:55.350Z,11.00
2022-11-10T02:33:57.107Z,11.00
2022-11-10T02:38:58.796Z,11.00
2022-11-10T02:44:00.805Z,10.90
2022-11-10T02:49:02.512Z,10.80
2022-11-10T02:54:05.077Z,10.80
2022-11-10T02:59:06.795Z,10.70
2022-11-10T03:04:08.831Z,10.70
2022-11-10T03:09:10.521Z,10.60
2022-11-10T03:14:12.173Z,10.60
2022-11-10T03:19:13.844Z,10.60
2022-11-10T03:24:15.526Z,10.50
2022-11-10T03:29:17.180Z,10.40
2022-11-10T03:34:18.855Z,10.40
2022-11-10T03:39:20.513Z,10.50
2022-11-10T03:44:22.168Z,10.30
2022-11-10T03:49:23.850Z,10.30
2022-11-10T03:54:25.549Z,10.30
2022-11-10T03:59:27.202Z,10.30
2022-11-10T04:04:47.458Z,10.30
2022-11-10T04:09:49.152Z,10.20
2022-11-10T04:15:09.579Z,10.30
2022-11-10T04:20:11.968Z,10.40
2022-11-10T04:25:13.648Z,10.40
2022-11-10T04:30:15.697Z,10.40
2022-11-10T04:35:17.365Z,10.40
2022-11-10T04:40:19.046Z,10.20
2022-11-10T04:45:21.216Z,10.10
2022-11-10T04:50:22.874Z,10.00
2022-11-10T04:55:24.542Z,9.90
2022-11-10T05:00:26.191Z,9.90
2022-11-10T05:05:28.232Z,9.90
2022-11-10T05:10:29.895Z,9.80
2022-11-10T05:15:32.850Z,9.70
2022-11-10T05:20:34.734Z,9.70
2022-11-10T05:25:39.423Z,9.70
2022-11-10T05:30:41.457Z,9.60
2022-11-10T05:35:44.132Z,9.50
2022-11-10T05:40:45.862Z,9.60
2022-11-10T05:45:47.570Z,9.50
2022-11-10T05:50:49.656Z,9.50
2022-11-10T05:55:51.367Z,9.60
2022-11-10T06:00:53.139Z,9.80
2022-11-10T06:05:54.832Z,9.90
2022-11-10T06:10:56.565Z,10.00
2022-11-10T06:15:58.243Z,10.10
2022-11-10T06:20:59.989Z,10.20
2022-11-10T06:26:01.674Z,10.20
2022-11-10T06:31:03.390Z,10.20
2022-11-10T06:36:05.247Z,10.20
2022-11-10T06:41:07.030Z,10.00
2022-11-10T06:46:08.730Z,9.90
2022-11-10T06:51:10.539Z,9.80
2022-11-10T06:56:12.220Z,9.80
2022-11-10T07:01:15.796Z,9.70
2022-11-10T07:06:21.313Z,9.70
2022-11-10T07:11:23.000Z,9.70
2022-11-10T07:16:24.780Z,9.70
2022-11-10T07:21:26.471Z,9.80
2022-11-10T07:26:28.382Z,9.80
2022-11-10T07:31:30.106Z,10.00
2022-11-10T07:36:31.776Z,10.00
2022-11-10T07:41:33.787Z,10.10
2022-11-10T07:46:35.475Z,10.20
2022-11-10T07:51:37.180Z,10.20
2022-11-10T07:56:38.898Z,10.30
2022-11-10T08:01:40.698Z,10.40
2022-11-10T08:06:42.441Z,10.50
2022-11-10T08:11:45.511Z,10.50
2022-11-10T08:16:47.261Z,10.70
2022-11-10T08:21:49.020Z,10.80
2022-11-10T08:26:50.720Z,11.00
2022-11-10T08:31:53.118Z,11.20
2022-11-10T08:36:54.991Z,11.40
2022-11-10T08:41:56.653Z,11.50
2022-11-10T08:46:58.303Z,11.50
2022-11-10T08:52:00.004Z,11.30
2022-11-10T08:57:02.238Z,11.30
2022-11-10T09:02:04.056Z,11.30
2022-11-10T09:07:05.768Z,11.40
2022-11-10T09:12:07.485Z,11.50
2022-11-10T09:17:09.264Z,11.60
2022-11-10T09:22:11.002Z,11.50
2022-11-10T09:27:12.710Z,11.70
2022-11-10T09:32:14.431Z,11.90
2022-11-10T09:37:16.095Z,12.00
2022-11-10T09:42:34.476Z,12.20
2022-11-10T09:47:57.218Z,12.40
2022-11-10T09:53:00.814Z,12.70
2022-11-10T09:58:03.368Z,12.90
2022-11-10T10:03:06.602Z,12.80
2022-11-10T10:08:15.785Z,12.60
2022-11-10T10:13:50.139Z,12.50
2022-11-10T10:19:36.511Z,12.60
2022-11-10T10:24:39.257Z,12.70
2022-11-10T10:29:45.232Z,12.70
2022-11-10T10:34:47.072Z,12.80
2022-11-10T10:39:51.086Z,12.80
2022-11-10T10:45:15.700Z,12.90
2022-11-10T10:50:36.817Z,13.00
2022-11-10T10:55:44.460Z,13.10
2022-11-10T11:00:48.351Z,13.10
2022-11-10T11:06:17.500Z,13.20
2022-11-10T11:11:23.497Z,13.30
2022-11-10T11:16:25.168Z,13.40
2022-11-10T11:21:43.819Z,13.50
2022-11-10T11:26:51.121Z,13.60
2022-11-10T11:32:08.965Z,13.60
2022-11-10T11:37:45.530Z,13.70
2022-11-10T11:42:53.056Z,13.90
2022-11-10T11:48:09.769Z,14.10
2022-11-10T11:53:30.111Z,14.20
2022-11-10T11:58:46.949Z,14.50
2022-11-10T12:04:07.170Z,14.60
2022-11-10T12:09:11.901Z,14.50
2022-11-10T12:14:34.584Z,14.40
2022-11-10T12:20:07.079Z,14.20
2022-11-10T12:25:14.010Z,14.10
2022-11-10T12:30:17.886Z,14.20
2022-11-10T12:35:37.107Z,14.20
2022-11-10T12:41:01.628Z,14.30
2022-11-10T12:46:13.150Z,14.40
2022-11-10T12:51:31.004Z,14.20
2022-11-10T12:56:45.642Z,14.10
2022-11-10T13:01:51.292Z,14.10
2022-11-10T13:07:08.838Z,14.20
2022-11-10T13:12:18.266Z,14.40
2022-11-10T13:17:28.979Z,14.30
2022-11-10T13:22:34.218Z,14.40
2022-11-10T13:27:35.849Z,14.70
2022-11-10T13:32:37.598Z,14.90
2022-11-10T13:37:39.406Z,14.80
2022-11-10T13:42:46.955Z,14.70
2022-11-10T13:48:12.580Z,14.70
2022-11-10T13:53:43.555Z,14.70
2022-11-10T13:58:45.782Z,14.70
2022-11-10T14:03:48.299Z,14.70
2022-11-10T14:09:25.936Z,14.70
2022-11-10T14:14:43.495Z,14.70
2022-11-10T14:19:46.496Z,14.70
2022-11-10T14:25:13.178Z,14.70
2022-11-10T14:30:25.599Z,14.70
2022-11-10T14:35:29.966Z,14.50
2022-11-10T14:40:31.981Z,14.20
2022-11-10T14:45:33.774Z,14.00
2022-11-10T14:50:36.109Z,13.90
2022-11-10T14:55:43.007Z,13.80
2022-11-10T15:00:46.542Z,13.60
2022-11-10T15:05:49.027Z,13.50
2022-11-10T15:10:53.223Z,13.40
2022-11-10T15:16:22.714Z,13.30
2022-11-10T15:21:34.204Z,13.10
2022-11-10T15:26:40.675Z,13.10
2022-11-10T15:31:44.264Z,13.00
2022-11-10T15:36:46.044Z,12.80
2022-11-10T15:41:56.848Z,12.70
2022-11-10T15:46:59.551Z,12.60
2022-11-10T15:52:05.073Z,12.50
2022-11-10T15:57:14.877Z,12.30
2022-11-10T16:02:24.927Z,12.20
2022-11-10T16:07:26.675Z,12.10
2022-11-10T16:12:29.294Z,12.00
2022-11-10T16:17:31.019Z,11.90
2022-11-10T16:22:32.699Z,11.90
2022-11-10T16:27:35.603Z,11.80
2022-11-10T16:32:37.377Z,11.80
2022-11-10T16:37:41.646Z,11.70
2022-11-10T16:42:44.186Z,11.60
2022-11-10T16:47:48.500Z,11.50
2022-11-10T16:52:50.186Z,11.40
2022-11-10T16:57:51.949Z,11.40
2022-11-10T17:03:17.103Z,11.50
2022-11-10T17:08:25.128Z,11.40
2022-11-10T17:13:27.126Z,11.30
2022-11-10T17:18:29.147Z,11.30
2022-11-10T17:23:32.107Z,11.20
2022-11-10T17:28:33.868Z,11.10
2022-11-10T17:33:35.645Z,11.10
2022-11-10T17:38:37.480Z,11.00
2022-11-10T17:43:44.301Z,10.90
2022-11-10T17:48:47.802Z,10.90
2022-11-10T17:53:50.600Z,10.80
2022-11-10T17:58:53.494Z,10.80
2022-11-10T18:03:55.850Z,10.70
2022-11-10T18:08:57.784Z,10.70
2022-11-10T18:14:00.843Z,10.60
2022-11-10T18:19:02.941Z,10.60
2022-11-10T18:24:04.779Z,10.50
2022-11-10T18:29:06.478Z,10.40
2022-11-10T18:34:08.214Z,10.40
2022-11-10T18:39:09.890Z,10.40
2022-11-10T18:44:11.567Z,10.40
2022-11-10T18:49:13.380Z,10.30
2022-11-10T18:54:15.210Z,10.30
2022-11-10T18:59:16.990Z,10.20
2022-11-10T19:04:18.659Z,10.30
2022-11-10T19:09:20.411Z,10.20
2022-11-10T19:14:22.360Z,10.20
2022-11-10T19:19:24.086Z,10.20
2022-11-10T19:24:28.029Z,10.00
2022-11-10T19:29:31.228Z,10.10
2022-11-10T19:34:32.979Z,10.10
2022-11-10T19:39:34.666Z,10.10
2022-11-10T19:44:36.397Z,10.00
2022-11-10T19:49:38.630Z,10.00
2022-11-10T19:54:40.407Z,9.90
2022-11-10T19:59:42.100Z,9.90
2022-11-10T20:05:02.617Z,9.90
2022-11-10T20:10:04.961Z,10.00
2022-11-10T20:15:07.981Z,9.80
2022-11-10T20:20:09.758Z,9.80
2022-11-10T20:25:11.431Z,9.70
2022-11-10T20:30:13.184Z,9.70
2022-11-10T20:35:14.948Z,9.60
2022-11-10T20:40:43.060Z,9.60
2022-11-10T20:45:39.241Z,9.60
2022-11-10T20:50:41.120Z,9.50
2022-11-10T20:55:53.515Z,9.50
2022-11-10T21:00:55.955Z,9.50
2022-11-10T21:05:57.857Z,9.40
2022-11-10T21:11:03.160Z,9.40
2022-11-10T21:16:06.290Z,9.30
2022-11-10T21:21:19.926Z,9.30
2022-11-10T21:26:21.613Z,9.30
2022-11-10T21:31:23.954Z,9.30
2022-11-10T21:36:29.925Z,9.30
2022-11-10T21:41:32.230Z,9.20
2022-11-10T21:46:34.064Z,9.20
2022-11-10T21:51:35.969Z,9.10
2022-11-10T21:56:37.907Z,9.00
2022-11-10T22:01:39.724Z,8.90
2022-11-10T22:06:59.940Z,8.90
2022-11-10T22:12:20.916Z,8.90
2022-11-10T22:17:43.071Z,8.90
2022-11-10T22:22:52.350Z,8.80
2022-11-10T22:27:54.117Z,8.80
2022-11-10T22:32:55.916Z,8.80
2022-11-10T22:38:04.356Z,8.80
2022-11-10T22:43:25.082Z,8.70
2022-11-10T22:48:27.681Z,8.70
2022-11-10T22:53:30.726Z,8.70
2022-11-10T22:58:32.467Z,8.70
2022-11-10T23:03:35.073Z,8.70
2022-11-10T23:08:36.945Z,8.60
2022-11-10T23:13:39.671Z,8.60
2022-11-10T23:18:43.502Z,8.50
2022-11-10T23:23:46.245Z,8.60
2022-11-10T23:28:48.113Z,8.70
2022-11-10T23:33:55.189Z,8.70
2022-11-10T23:38:56.985Z,8.80
2022-11-10T23:43:58.716Z,8.70
2022-11-10T23:49:00.424Z,8.70
2022-11-10T23:54:02.112Z,8.60
2022-11-10T23:59:03.915Z,8.50
